Time;durP1;ratioP1;P1;durP2;ratioP2;P2;SDS_P1;SDS_P2;PMS_P1;PMS_P2;Temp;Humidity;BMP_temperature;BMP_pressure;BME280_temperature;BME280_humidity;BME280_pressure;Samples;Min_cycle;Max_cycle;Signal;HPM_P1;HPM_P2
2021/05/22 00:00:46;;;;;;;9.07;1.63;;;;;;;;;;5050741;28;20450;-55
2021/05/22 00:03:12;;;;;;;1.70;1.30;;;;;;;;;;5050689;28;20458;-55
2021/05/22 00:05:38;;;;;;;4.40;1.57;;;;;;;;;;5050755;28;20846;-54
2021/05/22 00:08:04;;;;;;;6.40;1.60;;;;;;;;;;5050587;28;20523;-55
2021/05/22 00:10:30;;;;;;;2.80;1.30;;;;;;;;;;5050702;28;20406;-55
2021/05/22 00:12:56;;;;;;;1.70;1.60;;;;;;;;;;5050272;28;20887;-55
2021/05/22 00:15:22;;;;;;;7.27;1.43;;;;;;;;;;5050628;28;20402;-55
2021/05/22 00:17:48;;;;;;;5.03;1.50;;;;;;;;;;5050466;28;20426;-55
2021/05/22 00:20:14;;;;;;;4.63;1.67;;;;;;;;;;5050702;28;20412;-55
2021/05/22 00:22:41;;;;;;;4.03;1.40;;;;;;;;;;5050250;28;20413;-57
2021/05/22 00:25:08;;;;;;;2.97;1.67;;;;;;;;;;5050732;28;20411;-57
2021/05/22 00:27:34;;;;;;;5.97;1.80;;;;;;;;;;5050481;28;20422;-57
2021/05/22 00:30:00;;;;;;;1.40;1.30;;;;;;;;;;5049405;28;20417;-57
2021/05/22 00:32:26;;;;;;;6.23;1.47;;;;;;;;;;5050627;28;20454;-57
2021/05/22 00:34:52;;;;;;;3.53;1.87;;;;;;;;;;5050774;28;20397;-56
2021/05/22 00:37:18;;;;;;;3.53;1.77;;;;;;;;;;5050738;28;20834;-55
2021/05/22 00:39:44;;;;;;;3.10;1.60;;;;;;;;;;5050607;28;20405;-56
2021/05/22 00:42:10;;;;;;;4.70;2.03;;;;;;;;;;5050799;28;20406;-57
2021/05/22 00:44:36;;;;;;;6.17;2.00;;;;;;;;;;5054236;28;20484;-57
2021/05/22 00:47:03;;;;;;;4.83;1.57;;;;;;;;;;5054275;28;20491;-56
2021/05/22 00:49:29;;;;;;;5.10;1.80;;;;;;;;;;5054213;28;20925;-56
2021/05/22 00:51:55;;;;;;;5.73;1.63;;;;;;;;;;5054152;28;20539;-57
2021/05/22 00:54:21;;;;;;;3.70;1.50;;;;;;;;;;5054102;28;20477;-57
2021/05/22 00:56:48;;;;;;;3.80;1.57;;;;;;;;;;5054291;28;20531;-57
2021/05/22 00:59:18;;;;;;;3.33;1.70;;;;;;;;;;5054143;28;20398;-55
2021/05/22 01:01:44;;;;;;;2.43;1.50;;;;;;;;;;5053474;28;20411;-55
2021/05/22 01:04:11;;;;;;;1.70;1.60;;;;;;;;;;5053595;28;20775;-55
2021/05/22 01:06:37;;;;;;;1.90;1.43;;;;;;;;;;5053490;28;20941;-55
2021/05/22 01:09:10;;;;;;;5.63;1.63;;;;;;;;;;5054047;28;20425;-55
2021/05/22 01:11:36;;;;;;;2.47;1.40;;;;;;;;;;5053468;28;20459;-55
2021/05/22 01:14:13;;;;;;;2.37;1.80;;;;;;;;;;5053868;28;20401;-56
2021/05/22 01:16:40;;;;;;;2.73;1.70;;;;;;;;;;5053792;28;20397;-56
2021/05/22 01:19:08;;;;;;;3.00;1.67;;;;;;;;;;5053873;28;21027;-55
2021/05/22 01:21:40;;;;;;;1.83;1.53;;;;;;;;;;5053532;28;20405;-56
2021/05/22 01:24:08;;;;;;;2.10;1.70;;;;;;;;;;5053621;28;20401;-55
2021/05/22 01:26:34;;;;;;;4.50;1.80;;;;;;;;;;5053684;28;20403;-55
2021/05/22 01:29:01;;;;;;;2.93;1.47;;;;;;;;;;5053642;28;20433;-56
2021/05/22 01:31:27;;;;;;;2.00;1.37;;;;;;;;;;5053289;28;21057;-56
2021/05/22 01:33:53;;;;;;;10.80;1.80;;;;;;;;;;5053519;28;20399;-55
2021/05/22 01:36:19;;;;;;;6.60;1.87;;;;;;;;;;5053567;28;20732;-56
2021/05/22 01:38:45;;;;;;;6.97;1.57;;;;;;;;;;5053184;28;20457;-56
2021/05/22 01:41:11;;;;;;;6.00;1.57;;;;;;;;;;5053501;28;20415;-56
2021/05/22 01:43:39;;;;;;;1.80;1.70;;;;;;;;;;5053074;28;20397;-55
2021/05/22 01:46:07;;;;;;;4.90;1.80;;;;;;;;;;5053432;28;20504;-56
2021/05/22 01:48:33;;;;;;;1.90;1.70;;;;;;;;;;5053110;28;20865;-56
2021/05/22 01:51:05;;;;;;;4.00;2.27;;;;;;;;;;5053328;28;20401;-56
2021/05/22 01:53:31;;;;;;;2.53;1.63;;;;;;;;;;5052329;28;20453;-55
2021/05/22 01:55:58;;;;;;;1.97;1.50;;;;;;;;;;5051940;28;20414;-55
2021/05/22 01:58:24;;;;;;;10.40;2.00;;;;;;;;;;5052936;28;20859;-56
2021/05/22 02:00:50;;;;;;;4.73;1.97;;;;;;;;;;5053183;28;20434;-55
2021/05/22 02:03:34;;;;;;;3.90;1.63;;;;;;;;;;5052724;28;20410;-56
2021/05/22 02:06:02;;;;;;;6.40;2.00;;;;;;;;;;5053223;28;20386;-56
2021/05/22 02:08:29;;;;;;;5.37;1.97;;;;;;;;;;5052805;28;20510;-55
2021/05/22 02:10:55;;;;;;;2.70;1.90;;;;;;;;;;5052837;28;20404;-56
2021/05/22 02:13:21;;;;;;;3.73;1.70;;;;;;;;;;5052536;28;20491;-57
2021/05/22 02:15:52;;;;;;;4.53;1.90;;;;;;;;;;5052661;28;20493;-55
2021/05/22 02:18:19;;;;;;;6.13;2.20;;;;;;;;;;5052651;28;20426;-56
2021/05/22 02:20:47;;;;;;;2.60;1.70;;;;;;;;;;5052639;28;20496;-55
2021/05/22 02:23:14;;;;;;;4.33;1.97;;;;;;;;;;5052584;28;20424;-55
2021/05/22 02:25:40;;;;;;;4.80;1.90;;;;;;;;;;5051286;28;20491;-55
2021/05/22 02:28:08;;;;;;;5.07;1.80;;;;;;;;;;5052595;28;20482;-56
2021/05/22 02:30:35;;;;;;;5.40;1.90;;;;;;;;;;5052511;28;20401;-55
2021/05/22 02:33:02;;;;;;;5.70;2.00;;;;;;;;;;5052173;28;20463;-55
2021/05/22 02:35:29;;;;;;;3.93;1.50;;;;;;;;;;5052274;28;20427;-56
2021/05/22 02:37:55;;;;;;;2.90;1.77;;;;;;;;;;5052510;28;20417;-55
2021/05/22 02:40:24;;;;;;;3.50;2.00;;;;;;;;;;5052488;28;20921;-55
2021/05/22 02:42:53;;;;;;;5.50;2.20;;;;;;;;;;5052345;28;20436;-55
2021/05/22 02:45:20;;;;;;;4.43;1.57;;;;;;;;;;5052512;28;20433;-55
2021/05/22 02:47:48;;;;;;;2.87;1.53;;;;;;;;;;5052242;28;20469;-55
2021/05/22 02:50:15;;;;;;;5.40;1.63;;;;;;;;;;5052461;28;20405;-53
2021/05/22 02:52:41;;;;;;;3.43;1.87;;;;;;;;;;5051999;28;20456;-54
2021/05/22 02:55:09;;;;;;;5.03;1.67;;;;;;;;;;5052533;28;20401;-55
2021/05/22 02:57:35;;;;;;;2.40;1.50;;;;;;;;;;5052215;28;20511;-55
2021/05/22 03:00:02;;;;;;;3.33;1.60;;;;;;;;;;5052082;28;20402;-55
2021/05/22 03:02:28;;;;;;;3.43;1.53;;;;;;;;;;5050367;28;20425;-56
2021/05/22 03:04:54;;;;;;;6.47;2.07;;;;;;;;;;5051219;28;20413;-56
2021/05/22 03:07:20;;;;;;;2.40;1.93;;;;;;;;;;5051718;28;20434;-56
2021/05/22 03:09:47;;;;;;;7.70;1.97;;;;;;;;;;5052067;28;20422;-57
2021/05/22 03:12:15;;;;;;;3.77;1.70;;;;;;;;;;5051512;28;20454;-57
2021/05/22 03:14:41;;;;;;;8.00;1.70;;;;;;;;;;5051566;28;20999;-57
2021/05/22 03:17:07;;;;;;;3.33;1.43;;;;;;;;;;5051550;28;20512;-56
2021/05/22 03:19:33;;;;;;;6.77;1.70;;;;;;;;;;5051484;28;20427;-56
2021/05/22 03:21:59;;;;;;;3.50;1.50;;;;;;;;;;5051367;28;20771;-55
2021/05/22 03:24:25;;;;;;;4.93;1.53;;;;;;;;;;5051301;28;20889;-56
2021/05/22 03:26:52;;;;;;;1.60;1.40;;;;;;;;;;5051409;28;20397;-55
2021/05/22 03:29:18;;;;;;;3.17;1.80;;;;;;;;;;5051243;28;20402;-55
2021/05/22 03:31:44;;;;;;;2.00;1.50;;;;;;;;;;5051159;28;20897;-55
2021/05/22 03:34:10;;;;;;;2.87;1.70;;;;;;;;;;5051099;28;20394;-55
2021/05/22 03:36:36;;;;;;;2.90;1.60;;;;;;;;;;5051348;28;20421;-54
2021/05/22 03:39:02;;;;;;;3.90;1.50;;;;;;;;;;5051054;28;20462;-55
2021/05/22 03:41:28;;;;;;;5.47;1.57;;;;;;;;;;5051013;28;20484;-55
2021/05/22 03:43:54;;;;;;;2.17;1.30;;;;;;;;;;5051163;28;20924;-55
2021/05/22 03:46:20;;;;;;;1.50;1.40;;;;;;;;;;5050824;28;20393;-55
2021/05/22 03:48:46;;;;;;;4.03;1.80;;;;;;;;;;5051028;28;20409;-55
2021/05/22 03:51:12;;;;;;;5.57;1.70;;;;;;;;;;5050858;28;20405;-55
2021/05/22 03:53:38;;;;;;;3.90;2.33;;;;;;;;;;5049553;28;20490;-56
2021/05/22 03:56:04;;;;;;;5.43;2.60;;;;;;;;;;5050834;28;20398;-55
2021/05/22 03:58:30;;;;;;;2.83;1.80;;;;;;;;;;5050876;28;20413;-55
2021/05/22 04:00:56;;;;;;;3.73;1.70;;;;;;;;;;5050778;28;20789;-54
2021/05/22 04:03:23;;;;;;;6.30;1.53;;;;;;;;;;5050617;28;20398;-55
2021/05/22 04:05:49;;;;;;;1.63;1.20;;;;;;;;;;5050765;28;20481;-56
2021/05/22 04:08:15;;;;;;;3.17;1.80;;;;;;;;;;5050839;28;20497;-56
2021/05/22 04:10:41;;;;;;;6.60;2.27;;;;;;;;;;5050813;28;20463;-56
2021/05/22 04:13:07;;;;;;;6.03;1.87;;;;;;;;;;5050487;28;20453;-56
2021/05/22 04:15:33;;;;;;;1.53;1.20;;;;;;;;;;5050836;28;20847;-55
2021/05/22 04:17:59;;;;;;;3.03;1.60;;;;;;;;;;5050339;28;20410;-55
2021/05/22 04:20:25;;;;;;;2.60;1.53;;;;;;;;;;5050821;28;20405;-56
2021/05/22 04:22:51;;;;;;;3.40;1.60;;;;;;;;;;5050460;28;20401;-56
2021/05/22 04:25:17;;;;;;;3.03;1.67;;;;;;;;;;5050631;28;20398;-56
2021/05/22 04:27:43;;;;;;;3.10;1.30;;;;;;;;;;5049260;28;20973;-55
2021/05/22 04:30:09;;;;;;;3.10;1.43;;;;;;;;;;5050810;28;20776;-56
2021/05/22 04:32:35;;;;;;;2.07;1.50;;;;;;;;;;5050396;28;20488;-55
2021/05/22 04:35:01;;;;;;;4.20;1.63;;;;;;;;;;5050924;28;20790;-55
2021/05/22 04:37:28;;;;;;;4.70;1.80;;;;;;;;;;5050597;28;20477;-55
2021/05/22 04:39:54;;;;;;;9.80;1.90;;;;;;;;;;5050595;28;20813;-57
2021/05/22 04:42:20;;;;;;;1.80;1.70;;;;;;;;;;5050269;28;20401;-56
2021/05/22 04:44:46;;;;;;;9.33;2.00;;;;;;;;;;5050483;28;20410;-56
2021/05/22 04:47:12;;;;;;;2.30;2.10;;;;;;;;;;5050243;28;20452;-56
2021/05/22 04:49:38;;;;;;;7.50;1.87;;;;;;;;;;5050423;28;20474;-55
2021/05/22 04:52:04;;;;;;;5.17;2.00;;;;;;;;;;5050114;28;21032;-56
2021/05/22 04:54:30;;;;;;;5.53;1.57;;;;;;;;;;5050126;28;20402;-56
2021/05/22 04:56:56;;;;;;;8.43;2.10;;;;;;;;;;5050281;28;20413;-56
2021/05/22 04:59:22;;;;;;;3.87;1.60;;;;;;;;;;5048840;28;20512;-55
2021/05/22 05:01:48;;;;;;;3.73;2.00;;;;;;;;;;5050038;28;20405;-55
2021/05/22 05:04:14;;;;;;;7.67;1.70;;;;;;;;;;5049987;28;20412;-55
2021/05/22 05:06:40;;;;;;;7.37;2.33;;;;;;;;;;5050286;28;20444;-55
2021/05/22 05:09:07;;;;;;;4.20;1.90;;;;;;;;;;5049890;28;20934;-55
2021/05/22 05:11:33;;;;;;;8.07;2.00;;;;;;;;;;5050040;28;20488;-55
2021/05/22 05:13:59;;;;;;;4.90;2.13;;;;;;;;;;5050147;28;20401;-55
2021/05/22 05:16:27;;;;;;;2.87;2.07;;;;;;;;;;5049935;28;20489;-56
2021/05/22 05:18:53;;;;;;;1.80;1.70;;;;;;;;;;5050090;28;20429;-55
2021/05/22 05:21:19;;;;;;;3.53;1.80;;;;;;;;;;5049720;28;20393;-54
2021/05/22 05:23:45;;;;;;;13.23;2.23;;;;;;;;;;5050390;28;21007;-55
2021/05/22 05:26:11;;;;;;;3.83;1.90;;;;;;;;;;5048594;28;20428;-55
2021/05/22 05:28:37;;;;;;;5.17;2.07;;;;;;;;;;5050966;28;20456;-54
2021/05/22 05:31:04;;;;;;;2.90;1.63;;;;;;;;;;5053495;28;20799;-55
2021/05/22 05:33:30;;;;;;;3.87;1.90;;;;;;;;;;5053376;28;21213;-55
2021/05/22 05:35:56;;;;;;;5.37;2.00;;;;;;;;;;5053491;28;20397;-55
2021/05/22 05:38:22;;;;;;;3.87;1.67;;;;;;;;;;5053318;28;20885;-55
2021/05/22 05:40:48;;;;;;;4.63;1.97;;;;;;;;;;5053393;28;20987;-56
2021/05/22 05:43:17;;;;;;;6.83;2.17;;;;;;;;;;5053170;28;20814;-55
2021/05/22 05:45:43;;;;;;;3.60;1.80;;;;;;;;;;5053426;28;20975;-56
2021/05/22 05:48:10;;;;;;;10.50;2.00;;;;;;;;;;5053129;28;20445;-55
2021/05/22 05:50:36;;;;;;;3.60;1.67;;;;;;;;;;5053287;28;20405;-55
2021/05/22 05:53:03;;;;;;;2.50;1.73;;;;;;;;;;5052691;28;20507;-54
2021/05/22 05:55:29;;;;;;;4.27;1.97;;;;;;;;;;5053255;28;20886;-55
2021/05/22 05:57:58;;;;;;;3.87;1.60;;;;;;;;;;5052930;28;20413;-54
2021/05/22 06:00:25;;;;;;;3.70;1.70;;;;;;;;;;5053219;28;20432;-55
2021/05/22 06:02:51;;;;;;;5.87;2.03;;;;;;;;;;5052725;28;20409;-54
2021/05/22 06:05:17;;;;;;;4.00;1.77;;;;;;;;;;5052916;28;20448;-54
2021/05/22 06:07:43;;;;;;;2.83;1.80;;;;;;;;;;5052774;28;20462;-56
2021/05/22 06:10:10;;;;;;;3.63;1.67;;;;;;;;;;5052990;28;20406;-54
2021/05/22 06:12:36;;;;;;;6.77;2.27;;;;;;;;;;5052650;28;20553;-54
2021/05/22 06:15:23;;;;;;;8.10;2.20;;;;;;;;;;5052780;28;20405;-55
2021/05/22 06:17:49;;;;;;;4.43;1.60;;;;;;;;;;5052755;28;20488;-55
2021/05/22 06:20:15;;;;;;;5.63;4.37;;;;;;;;;;5052725;28;20403;-54
2021/05/22 06:22:42;;;;;;;7.40;1.97;;;;;;;;;;5052694;28;20812;-53
2021/05/22 06:25:09;;;;;;;6.40;2.20;;;;;;;;;;5052781;28;20490;-54
2021/05/22 06:27:35;;;;;;;10.47;2.30;;;;;;;;;;5052651;28;20425;-57
2021/05/22 06:30:01;;;;;;;6.57;2.70;;;;;;;;;;5052518;28;20417;-54
2021/05/22 06:32:28;;;;;;;3.40;3.10;;;;;;;;;;5052404;28;20445;-54
2021/05/22 06:34:54;;;;;;;4.50;2.03;;;;;;;;;;5052598;28;20401;-53
2021/05/22 06:37:20;;;;;;;10.53;2.17;;;;;;;;;;5052616;28;20961;-52
2021/05/22 06:39:46;;;;;;;4.60;2.17;;;;;;;;;;5051367;28;20398;-55
2021/05/22 06:42:12;;;;;;;5.40;2.20;;;;;;;;;;5052122;28;20530;-54
2021/05/22 06:44:42;;;;;;;7.13;2.07;;;;;;;;;;5052256;28;20882;-53
2021/05/22 06:47:08;;;;;;;6.03;2.97;;;;;;;;;;5052000;28;20527;-55
2021/05/22 06:49:34;;;;;;;4.33;2.07;;;;;;;;;;5052247;28;20459;-55
2021/05/22 06:52:02;;;;;;;3.10;2.17;;;;;;;;;;5051798;28;20460;-55
2021/05/22 06:54:31;;;;;;;8.03;2.30;;;;;;;;;;5052040;28;20563;-53
2021/05/22 06:56:57;;;;;;;3.87;1.93;;;;;;;;;;5051990;28;20424;-52
2021/05/22 06:59:23;;;;;;;6.27;2.20;;;;;;;;;;5052032;28;20878;-53
2021/05/22 07:01:49;;;;;;;4.03;2.60;;;;;;;;;;5051633;28;20404;-53
2021/05/22 07:04:15;;;;;;;4.93;2.07;;;;;;;;;;5051840;28;20431;-54
2021/05/22 07:06:41;;;;;;;5.10;2.17;;;;;;;;;;5051681;28;20908;-54
2021/05/22 07:09:07;;;;;;;3.87;2.07;;;;;;;;;;5051854;28;20402;-54
2021/05/22 07:11:36;;;;;;;7.57;2.60;;;;;;;;;;5051371;28;20878;-52
2021/05/22 07:14:02;;;;;;;5.00;1.97;;;;;;;;;;5051560;28;20405;-54
2021/05/22 07:16:28;;;;;;;3.20;1.73;;;;;;;;;;5051625;28;20406;-54
2021/05/22 07:18:54;;;;;;;5.03;2.20;;;;;;;;;;5051641;28;20436;-52
2021/05/22 07:21:20;;;;;;;7.10;2.23;;;;;;;;;;5051445;28;20393;-54
2021/05/22 07:23:47;;;;;;;5.20;1.97;;;;;;;;;;5051294;28;20409;-53
2021/05/22 07:26:13;;;;;;;9.63;2.30;;;;;;;;;;5051512;28;20400;-54
2021/05/22 07:28:39;;;;;;;4.10;2.23;;;;;;;;;;5051007;28;20418;-53
2021/05/22 07:31:05;;;;;;;3.43;1.77;;;;;;;;;;5051586;28;20408;-54
2021/05/22 07:33:34;;;;;;;7.47;1.90;;;;;;;;;;5050923;28;20537;-54
2021/05/22 07:35:59;;;;;;;3.87;2.10;;;;;;;;;;5051393;28;20902;-53
2021/05/22 07:38:25;;;;;;;3.17;1.93;;;;;;;;;;5051098;28;20436;-52
2021/05/22 07:40:51;;;;;;;2.80;1.70;;;;;;;;;;5051339;28;20470;-54
2021/05/22 07:43:19;;;;;;;4.13;2.10;;;;;;;;;;5049461;28;20951;-53
2021/05/22 07:45:45;;;;;;;2.13;1.67;;;;;;;;;;5051150;28;20831;-53
2021/05/22 07:48:11;;;;;;;1.93;1.83;;;;;;;;;;5051016;28;20449;-52
2021/05/22 07:50:38;;;;;;;2.63;1.70;;;;;;;;;;5050915;28;20954;-54
2021/05/22 07:53:04;;;;;;;3.70;2.03;;;;;;;;;;5050438;28;20973;-54
2021/05/22 07:55:30;;;;;;;2.07;1.80;;;;;;;;;;5050875;28;20481;-53
2021/05/22 07:57:56;;;;;;;3.13;2.33;;;;;;;;;;5050780;28;20413;-53
2021/05/22 08:00:22;;;;;;;2.73;1.80;;;;;;;;;;5050850;28;20422;-54
2021/05/22 08:02:48;;;;;;;4.63;1.83;;;;;;;;;;5050668;28;20405;-54
2021/05/22 08:05:15;;;;;;;4.50;2.07;;;;;;;;;;5050788;28;20409;-54
2021/05/22 08:07:41;;;;;;;7.63;2.50;;;;;;;;;;5050840;28;20491;-54
2021/05/22 08:10:07;;;;;;;2.97;1.63;;;;;;;;;;5050729;28;20485;-53
2021/05/22 08:12:33;;;;;;;7.07;2.07;;;;;;;;;;5050444;28;20795;-53
2021/05/22 08:15:00;;;;;;;1.80;1.70;;;;;;;;;;5050858;28;20447;-52
2021/05/22 08:17:26;;;;;;;7.83;2.00;;;;;;;;;;5050685;28;20424;-52
2021/05/22 08:19:52;;;;;;;2.50;1.80;;;;;;;;;;5050921;28;20466;-52
2021/05/22 08:22:18;;;;;;;3.47;1.53;;;;;;;;;;5050489;28;20484;-53
2021/05/22 08:24:44;;;;;;;3.70;2.17;;;;;;;;;;5050897;28;20496;-53
2021/05/22 08:27:10;;;;;;;2.27;1.60;;;;;;;;;;5050544;28;20436;-53
2021/05/22 08:29:38;;;;;;;5.80;1.67;;;;;;;;;;5050951;28;20401;-53
2021/05/22 08:32:04;;;;;;;3.17;1.50;;;;;;;;;;5050462;28;20481;-53
2021/05/22 08:34:30;;;;;;;6.23;1.80;;;;;;;;;;5050695;28;20416;-53
2021/05/22 08:36:56;;;;;;;3.83;1.97;;;;;;;;;;5050445;28;20398;-53
2021/05/22 08:39:22;;;;;;;4.20;1.83;;;;;;;;;;5050651;28;20774;-53
2021/05/22 08:41:50;;;;;;;4.63;1.70;;;;;;;;;;5050059;28;20415;-53
2021/05/22 08:44:16;;;;;;;2.73;2.00;;;;;;;;;;5050720;28;20436;-53
2021/05/22 08:46:42;;;;;;;3.17;1.77;;;;;;;;;;5049121;28;20465;-53
2021/05/22 08:49:10;;;;;;;2.10;1.40;;;;;;;;;;5050171;28;20401;-53
2021/05/22 08:51:37;;;;;;;4.70;3.07;;;;;;;;;;5050156;28;20402;-55
2021/05/22 08:54:03;;;;;;;3.97;1.80;;;;;;;;;;5050011;28;20764;-53
2021/05/22 08:56:29;;;;;;;4.97;2.33;;;;;;;;;;5049988;28;20413;-54
2021/05/22 08:58:55;;;;;;;2.33;1.50;;;;;;;;;;5049919;28;20421;-54
2021/05/22 09:01:21;;;;;;;3.77;1.80;;;;;;;;;;5049992;28;20766;-53
2021/05/22 09:03:47;;;;;;;2.40;1.70;;;;;;;;;;5051331;28;20770;-53
2021/05/22 09:06:13;;;;;;;4.43;1.77;;;;;;;;;;5054045;28;20558;-53
2021/05/22 09:08:39;;;;;;;5.87;2.13;;;;;;;;;;5053798;28;20508;-53
2021/05/22 09:11:06;;;;;;;3.47;1.60;;;;;;;;;;5054022;28;20488;-54
2021/05/22 09:13:33;;;;;;;3.17;1.77;;;;;;;;;;5053584;28;20453;-54
2021/05/22 09:16:00;;;;;;;4.13;1.70;;;;;;;;;;5053686;28;20420;-54
2021/05/22 09:18:31;;;;;;;7.27;2.60;;;;;;;;;;5053682;28;20483;-54
2021/05/22 09:20:59;;;;;;;3.90;1.60;;;;;;;;;;5053726;28;20416;-54
2021/05/22 09:23:26;;;;;;;4.73;1.93;;;;;;;;;;5053393;28;20397;-54
2021/05/22 09:25:57;;;;;;;2.27;2.07;;;;;;;;;;5053429;28;20398;-53
2021/05/22 09:28:27;;;;;;;7.17;2.17;;;;;;;;;;5053655;28;20413;-53
2021/05/22 09:30:54;;;;;;;2.20;2.00;;;;;;;;;;5053918;28;20400;-54
2021/05/22 09:33:21;;;;;;;4.13;2.40;;;;;;;;;;5053069;28;20449;-53
2021/05/22 09:36:07;;;;;;;7.03;2.47;;;;;;;;;;5053309;28;20393;-53
2021/05/22 09:38:38;;;;;;;5.33;2.40;;;;;;;;;;5053241;28;20432;-53
2021/05/22 09:41:14;;;;;;;3.30;2.20;;;;;;;;;;5054986;28;20401;-53
2021/05/22 09:43:40;;;;;;;3.50;2.00;;;;;;;;;;5051888;28;20419;-53
2021/05/22 09:46:09;;;;;;;4.93;1.93;;;;;;;;;;5051461;28;20988;-53
2021/05/22 09:48:36;;;;;;;2.80;2.10;;;;;;;;;;5052958;28;20433;-53
2021/05/22 09:51:03;;;;;;;6.40;2.03;;;;;;;;;;5053394;28;20396;-53
2021/05/22 09:53:29;;;;;;;5.33;2.43;;;;;;;;;;5052786;28;20460;-53
2021/05/22 09:56:07;;;;;;;4.40;1.87;;;;;;;;;;5053213;28;20397;-54
2021/05/22 09:58:37;;;;;;;2.43;2.00;;;;;;;;;;5053038;28;21149;-53
2021/05/22 10:01:03;;;;;;;6.07;1.97;;;;;;;;;;5053181;28;20787;-53
2021/05/22 10:03:29;;;;;;;6.90;1.60;;;;;;;;;;5052736;28;20412;-52
2021/05/22 10:05:55;;;;;;;3.03;2.00;;;;;;;;;;5053060;28;20397;-53
2021/05/22 10:08:21;;;;;;;3.30;1.83;;;;;;;;;;5053013;28;20425;-54
2021/05/22 10:10:49;;;;;;;5.13;2.33;;;;;;;;;;5052945;28;20412;-53
2021/05/22 10:13:16;;;;;;;7.20;2.20;;;;;;;;;;5043183;28;20454;-53
2021/05/22 10:15:43;;;;;;;3.13;2.10;;;;;;;;;;5032775;28;20759;-54
2021/05/22 10:18:09;;;;;;;4.20;2.33;;;;;;;;;;5032964;28;20429;-53
2021/05/22 10:20:35;;;;;;;3.13;2.20;;;;;;;;;;5032868;28;20403;-53
2021/05/22 10:23:02;;;;;;;4.10;2.10;;;;;;;;;;5032688;28;20402;-53
2021/05/22 10:25:28;;;;;;;4.23;2.00;;;;;;;;;;5032781;28;20406;-54
2021/05/22 10:27:54;;;;;;;2.17;1.80;;;;;;;;;;5032535;28;20429;-53
2021/05/22 10:30:20;;;;;;;8.03;2.00;;;;;;;;;;5032608;28;20461;-53
2021/05/22 10:32:46;;;;;;;3.57;1.90;;;;;;;;;;5032458;28;21024;-53
2021/05/22 10:35:13;;;;;;;2.00;1.90;;;;;;;;;;5032666;28;20402;-54
2021/05/22 10:37:41;;;;;;;4.60;1.90;;;;;;;;;;5032351;28;20422;-54
2021/05/22 10:40:09;;;;;;;3.77;2.00;;;;;;;;;;5032450;28;20481;-53
2021/05/22 10:42:35;;;;;;;4.03;2.50;;;;;;;;;;5032368;28;20462;-53
2021/05/22 10:45:19;;;;;;;5.83;2.30;;;;;;;;;;5032397;28;20702;-53
2021/05/22 10:47:45;;;;;;;4.00;2.10;;;;;;;;;;5031977;28;20445;-54
2021/05/22 10:50:11;;;;;;;5.37;2.20;;;;;;;;;;5032403;28;20399;-53
2021/05/22 10:52:37;;;;;;;8.13;1.90;;;;;;;;;;5031754;28;20528;-56
2021/05/22 10:55:07;;;;;;;4.40;1.67;;;;;;;;;;5031969;28;20441;-56
2021/05/22 10:57:57;;;;;;;3.50;2.03;;;;;;;;;;5031905;28;20418;-56
2021/05/22 11:00:26;;;;;;;8.03;2.00;;;;;;;;;;5032463;28;20933;-56
2021/05/22 11:03:13;;;;;;;5.10;2.50;;;;;;;;;;5031567;28;20411;-56
2021/05/22 11:05:43;;;;;;;4.53;2.47;;;;;;;;;;5032025;28;21094;-56
2021/05/22 11:08:09;;;;;;;4.60;2.40;;;;;;;;;;5031688;28;20508;-56
2021/05/22 11:10:39;;;;;;;4.13;2.40;;;;;;;;;;5031911;28;20497;-56
2021/05/22 11:13:06;;;;;;;3.47;2.60;;;;;;;;;;5030833;28;20997;-57
2021/05/22 11:15:38;;;;;;;3.17;2.23;;;;;;;;;;5032192;28;20398;-54
2021/05/22 11:18:04;;;;;;;3.13;1.90;;;;;;;;;;5031382;28;20476;-55
2021/05/22 11:20:30;;;;;;;3.43;2.87;;;;;;;;;;5031639;28;20406;-56
2021/05/22 11:22:58;;;;;;;2.00;1.90;;;;;;;;;;5031167;28;20453;-57
2021/05/22 11:25:25;;;;;;;5.30;2.53;;;;;;;;;;5032002;28;20407;-55
2021/05/22 11:27:59;;;;;;;4.10;2.00;;;;;;;;;;5031037;28;20895;-54
2021/05/22 11:30:35;;;;;;;2.40;2.20;;;;;;;;;;5031520;28;20402;-54
2021/05/22 11:33:01;;;;;;;5.70;2.33;;;;;;;;;;5031203;28;20445;-54
2021/05/22 11:35:27;;;;;;;6.00;2.10;;;;;;;;;;5031353;28;20911;-54
2021/05/22 11:37:54;;;;;;;5.53;2.30;;;;;;;;;;5030088;28;20839;-54
2021/05/22 11:40:35;;;;;;;7.83;2.93;;;;;;;;;;5031279;28;20411;-54
2021/05/22 11:43:22;;;;;;;5.37;2.60;;;;;;;;;;5030945;28;20465;-54
2021/05/22 11:45:59;;;;;;;4.53;2.20;;;;;;;;;;5031250;28;20778;-54
2021/05/22 11:48:31;;;;;;;8.37;2.50;;;;;;;;;;5031291;28;20958;-54
2021/05/22 11:50:57;;;;;;;5.20;2.17;;;;;;;;;;5031071;28;20404;-54
2021/05/22 11:53:24;;;;;;;5.37;2.10;;;;;;;;;;5030745;28;20455;-54
2021/05/22 11:55:58;;;;;;;5.00;2.90;;;;;;;;;;5029868;28;20419;-54
2021/05/22 11:58:25;;;;;;;3.93;2.30;;;;;;;;;;5031160;28;20825;-54
2021/05/22 12:00:51;;;;;;;6.73;2.40;;;;;;;;;;5030926;28;20488;-54
2021/05/22 12:03:27;;;;;;;5.63;2.20;;;;;;;;;;5050681;28;20410;-54
2021/05/22 12:05:53;;;;;;;2.57;2.37;;;;;;;;;;5050542;28;20409;-54
2021/05/22 12:08:21;;;;;;;5.03;2.70;;;;;;;;;;5050753;28;20417;-54
2021/05/22 12:10:47;;;;;;;4.13;2.40;;;;;;;;;;5050646;28;20739;-54
2021/05/22 12:13:14;;;;;;;8.40;3.53;;;;;;;;;;5050427;28;20486;-54
2021/05/22 12:15:42;;;;;;;8.40;2.20;;;;;;;;;;5050735;28;20484;-54
2021/05/22 12:18:08;;;;;;;3.43;1.93;;;;;;;;;;5050469;28;20432;-54
2021/05/22 12:20:51;;;;;;;9.30;3.07;;;;;;;;;;5050592;28;21185;-56
2021/05/22 12:23:22;;;;;;;5.53;2.60;;;;;;;;;;5050248;28;20423;-56
2021/05/22 12:25:48;;;;;;;4.73;2.53;;;;;;;;;;5050680;28;20796;-56
2021/05/22 12:28:14;;;;;;;7.10;2.73;;;;;;;;;;5050404;28;20440;-56
2021/05/22 12:30:40;;;;;;;2.70;1.93;;;;;;;;;;5050572;28;20479;-55
2021/05/22 12:33:15;;;;;;;3.10;2.73;;;;;;;;;;5050178;28;20941;-55
2021/05/22 12:35:41;;;;;;;5.13;3.57;;;;;;;;;;5049445;28;20471;-54
2021/05/22 12:38:07;;;;;;;4.73;2.13;;;;;;;;;;5052531;28;20798;-55
2021/05/22 12:40:49;;;;;;;5.53;2.17;;;;;;;;;;5055015;28;20403;-54
2021/05/22 12:43:16;;;;;;;3.57;2.30;;;;;;;;;;5054341;28;20413;-55
2021/05/22 12:45:44;;;;;;;6.00;2.30;;;;;;;;;;5054857;28;20413;-55
2021/05/22 12:48:25;;;;;;;3.80;2.73;;;;;;;;;;5054774;28;20437;-55
2021/05/22 12:50:51;;;;;;;4.50;2.80;;;;;;;;;;5054724;28;20405;-55
2021/05/22 12:53:32;;;;;;;7.73;3.00;;;;;;;;;;5054205;28;20454;-54
2021/05/22 12:56:03;;;;;;;3.23;2.80;;;;;;;;;;5054167;28;20409;-55
2021/05/22 12:58:29;;;;;;;3.70;2.40;;;;;;;;;;5054407;28;20452;-55
2021/05/22 13:00:55;;;;;;;5.90;2.93;;;;;;;;;;5054415;28;20445;-56
2021/05/22 13:03:37;;;;;;;5.33;2.83;;;;;;;;;;5054107;28;20413;-54
2021/05/22 13:06:04;;;;;;;4.03;2.60;;;;;;;;;;5054277;28;20437;-55
2021/05/22 13:08:30;;;;;;;3.40;2.60;;;;;;;;;;5054013;28;20421;-55
2021/05/22 13:11:06;;;;;;;8.40;2.90;;;;;;;;;;5054048;28;20538;-55
2021/05/22 13:13:32;;;;;;;3.90;2.90;;;;;;;;;;5053749;28;20998;-55
2021/05/22 13:16:04;;;;;;;8.20;3.03;;;;;;;;;;5053831;28;20435;-54
2021/05/22 13:18:31;;;;;;;4.70;2.80;;;;;;;;;;5053954;28;20524;-54
2021/05/22 13:21:02;;;;;;;8.67;4.30;;;;;;;;;;5053660;28;20775;-54
2021/05/22 13:23:33;;;;;;;4.60;2.60;;;;;;;;;;5053742;28;20391;-54
2021/05/22 13:26:00;;;;;;;6.20;2.60;;;;;;;;;;5053876;28;20454;-54
2021/05/22 13:28:26;;;;;;;8.37;3.20;;;;;;;;;;5053593;28;20462;-55
2021/05/22 13:31:14;;;;;;;4.43;3.27;;;;;;;;;;5053751;28;20409;-54
2021/05/22 13:33:47;;;;;;;6.13;3.17;;;;;;;;;;5053505;28;20448;-55
2021/05/22 13:36:13;;;;;;;3.10;2.60;;;;;;;;;;5053606;28;20931;-55
2021/05/22 13:38:39;;;;;;;6.03;3.10;;;;;;;;;;5053341;28;20969;-54
2021/05/22 13:41:06;;;;;;;5.90;3.00;;;;;;;;;;5053508;28;20420;-55
2021/05/22 13:43:33;;;;;;;4.37;2.80;;;;;;;;;;5053220;28;20452;-55
2021/05/22 13:45:59;;;;;;;14.37;3.00;;;;;;;;;;5053307;28;20498;-54
2021/05/22 13:48:25;;;;;;;8.70;3.67;;;;;;;;;;5053087;28;20449;-55
2021/05/22 13:50:52;;;;;;;4.97;3.23;;;;;;;;;;5052612;28;20417;-55
2021/05/22 13:53:18;;;;;;;6.70;3.27;;;;;;;;;;5052912;28;20553;-55
2021/05/22 13:55:44;;;;;;;5.83;2.63;;;;;;;;;;5053286;28;20436;-54
2021/05/22 13:58:10;;;;;;;6.63;2.83;;;;;;;;;;5053129;28;20986;-54
2021/05/22 14:00:36;;;;;;;7.00;2.70;;;;;;;;;;5052986;28;20422;-54
2021/05/22 14:03:02;;;;;;;14.60;3.07;;;;;;;;;;5052961;28;20892;-54
2021/05/22 14:05:28;;;;;;;5.43;2.50;;;;;;;;;;5054188;28;20419;-54
2021/05/22 14:07:54;;;;;;;5.37;2.70;;;;;;;;;;5056196;28;20439;-54
2021/05/22 14:10:20;;;;;;;8.47;3.23;;;;;;;;;;5052939;28;20433;-54
2021/05/22 14:12:46;;;;;;;4.33;3.30;;;;;;;;;;5052656;28;20793;-54
2021/05/22 14:15:12;;;;;;;6.07;3.00;;;;;;;;;;5052444;28;20396;-54
2021/05/22 14:17:38;;;;;;;11.50;2.70;;;;;;;;;;5052722;28;21019;-54
2021/05/22 14:20:06;;;;;;;10.77;4.03;;;;;;;;;;5052764;28;20760;-54
2021/05/22 14:22:31;;;;;;;3.50;2.83;;;;;;;;;;5052776;28;20488;-53
2021/05/22 14:24:59;;;;;;;4.93;2.50;;;;;;;;;;5052770;28;20846;-54
2021/05/22 14:27:25;;;;;;;11.40;3.00;;;;;;;;;;5052400;28;20510;-54
2021/05/22 14:29:51;;;;;;;5.40;2.53;;;;;;;;;;5053284;28;20495;-54
2021/05/22 14:32:17;;;;;;;5.80;2.50;;;;;;;;;;5052089;28;21040;-53
2021/05/22 14:34:43;;;;;;;10.00;2.60;;;;;;;;;;5052811;28;20897;-53
2021/05/22 14:37:09;;;;;;;3.43;2.80;;;;;;;;;;5051464;28;20416;-54
2021/05/22 14:39:35;;;;;;;3.70;2.17;;;;;;;;;;5052436;28;20882;-54
2021/05/22 14:42:01;;;;;;;2.97;2.17;;;;;;;;;;5052286;28;20393;-53
2021/05/22 14:44:27;;;;;;;2.63;1.70;;;;;;;;;;5052264;28;20405;-55